Current Weather

Benson

Benson, United Kingdom (EGUB)

Report from: Monday, September 26, 2022 4:50 AM BST
Current time: Monday, September 26, 2022 5:19 AM BST

Nearby weather
Weather history
Weather forecast

Temperature12.0°C (53.6°F)
Dew point11.0°C (51.8°F)
Winds 9 kts (4.6 m/s, 10.4 mph) Southwest (220°)
Visibility6.2 mi. (10 km)
Clouds Ceiling: Overcast 900 ft. (274 m)
Altimeter29.62 in.Hg (1003 mB)
Relative humidity94 %
Density altitude176 ft. (54 m)
Remarks Fully automated report
Flight conditions Instrument Meteorological Conditions
Raw dataEGUB 260350Z AUTO 22009KT 9999 // OVC009/// 12/11 Q1003
An error has occurred. This application may no longer respond until reloaded. Reload 🗙